Time;durP1;ratioP1;P1;durP2;ratioP2;P2;SDS_P1;SDS_P2;PMS_P1;PMS_P2;Temp;Humidity;BMP_temperature;BMP_pressure;BME280_temperature;BME280_humidity;BME280_pressure;Samples;Min_cycle;Max_cycle;Signal;HPM_P1;HPM_P2
2022/05/30 00:00:15;;;;;;;4.22;2.40;;;;;;;16.96;41.56;99501.25;4999073;28;20049;-70
2022/05/30 00:02:40;;;;;;;9.25;2.80;;;;;;;16.93;41.75;99498.97;4989225;28;20068;-70
2022/05/30 00:05:07;;;;;;;3.78;2.50;;;;;;;16.87;41.74;99507.84;4973291;28;20038;-70
2022/05/30 00:07:33;;;;;;;4.93;2.65;;;;;;;16.59;41.99;99499.88;5009223;28;20471;-69
2022/05/30 00:09:58;;;;;;;6.32;2.80;;;;;;;16.72;41.93;99500.75;4981252;28;20128;-70
2022/05/30 00:12:24;;;;;;;5.25;2.60;;;;;;;16.64;42.05;99508.97;5020452;28;20561;-72
2022/05/30 00:14:50;;;;;;;5.13;3.10;;;;;;;16.59;42.39;99522.16;5009371;28;20047;-72
2022/05/30 00:17:16;;;;;;;4.53;2.50;;;;;;;16.58;42.82;99536.59;4981274;28;20076;-73
2022/05/30 00:19:41;;;;;;;8.10;2.58;;;;;;;16.46;42.99;99530.13;5016300;28;20046;-72
2022/05/30 00:22:11;;;;;;;7.40;2.83;;;;;;;16.56;42.90;99530.59;5003210;28;20045;-72
2022/05/30 00:24:37;;;;;;;9.65;2.90;;;;;;;16.52;42.97;99521.28;5013646;28;20041;-72
2022/05/30 00:27:04;;;;;;;5.28;2.80;;;;;;;16.61;43.09;99530.81;5016449;28;20078;-70
2022/05/30 00:29:30;;;;;;;8.02;2.60;;;;;;;16.51;43.27;99519.63;5035048;28;20046;-72
2022/05/30 00:31:56;;;;;;;4.68;2.40;;;;;;;16.52;43.30;99525.81;4983993;28;20037;-72
2022/05/30 00:34:23;;;;;;;4.95;3.00;;;;;;;16.33;43.75;99513.09;5017335;28;20415;-72
2022/05/30 00:36:49;;;;;;;5.55;3.30;;;;;;;16.46;43.49;99532.81;4995244;28;20042;-72
2022/05/30 00:39:15;;;;;;;4.45;2.45;;;;;;;16.25;44.17;99532.84;4981241;28;20044;-72
2022/05/30 00:41:42;;;;;;;8.20;2.70;;;;;;;16.09;44.38;99525.13;5014781;28;20436;-72
2022/05/30 00:44:10;;;;;;;6.93;2.80;;;;;;;16.33;44.27;99531.84;4982898;28;20041;-72
2022/05/30 00:46:35;;;;;;;11.50;3.60;;;;;;;16.01;44.75;99543.19;4984956;28;20044;-73
2022/05/30 00:49:07;;;;;;;7.32;3.20;;;;;;;16.25;44.76;99542.75;4998155;28;20038;-73
2022/05/30 00:51:50;;;;;;;9.50;2.80;;;;;;;16.38;44.25;99543.66;5009729;28;20100;-72
2022/05/30 00:54:21;;;;;;;11.43;3.60;;;;;;;16.44;44.23;99560.81;5007993;28;20042;-72
2022/05/30 00:56:53;;;;;;;9.93;3.53;;;;;;;16.20;44.85;99563.94;5008738;28;20050;-71
2022/05/30 00:59:20;;;;;;;11.95;4.10;;;;;;;15.93;44.77;99520.06;4992899;28;20053;-71
2022/05/30 01:01:46;;;;;;;8.90;3.70;;;;;;;15.93;45.25;99551.38;5011099;28;20068;-72
2022/05/30 01:07:02;;;;;;;8.93;3.20;;;;;;;16.20;44.81;99543.34;5001414;28;20041;-73
2022/05/30 01:09:39;;;;;;;9.50;3.95;;;;;;;16.31;44.30;99540.09;4983665;28;20092;-73
2022/05/30 01:12:08;;;;;;;8.70;4.00;;;;;;;16.08;44.63;99536.03;5015308;28;20109;-73
2022/05/30 01:14:40;;;;;;;8.23;3.92;;;;;;;16.29;44.33;99550.22;4977012;28;20077;-72
2022/05/30 01:17:15;;;;;;;6.55;3.53;;;;;;;16.24;44.33;99549.13;5019252;28;20052;-73
2022/05/30 01:19:58;;;;;;;6.40;3.47;;;;;;;16.12;44.29;99554.22;5001378;28;20045;-73
2022/05/30 01:22:39;;;;;;;13.63;3.58;;;;;;;16.46;43.81;99546.22;5000344;28;20054;-73
2022/05/30 01:25:20;;;;;;;10.93;3.92;;;;;;;16.12;44.04;99550.69;5001088;28;20054;-73
2022/05/30 01:28:22;;;;;;;9.10;3.30;;;;;;;16.35;44.05;99553.94;5018825;28;20686;-76
2022/05/30 01:30:50;;;;;;;8.63;3.72;;;;;;;16.18;43.81;99561.47;5025489;28;20041;-73
2022/05/30 01:33:16;;;;;;;5.60;3.33;;;;;;;16.24;44.11;99552.63;5015734;28;20041;-73
2022/05/30 01:35:43;;;;;;;5.93;3.50;;;;;;;15.93;44.42;99549.53;5014920;28;20049;-73
2022/05/30 01:38:14;;;;;;;8.68;3.80;;;;;;;15.97;44.54;99558.00;4999737;28;20554;-73
2022/05/30 01:40:40;;;;;;;4.47;3.28;;;;;;;15.89;44.47;99556.31;4982384;28;20042;-72
2022/05/30 01:43:06;;;;;;;6.43;3.67;;;;;;;16.00;44.42;99561.13;5014521;28;20407;-71
2022/05/30 01:45:34;;;;;;;6.18;3.40;;;;;;;16.02;44.31;99568.97;4998288;28;20045;-71
2022/05/30 01:48:00;;;;;;;7.40;3.30;;;;;;;15.84;44.14;99537.28;5014508;28;20495;-71
2022/05/30 01:50:29;;;;;;;4.55;3.10;;;;;;;16.00;44.39;99561.13;5031026;28;20076;-73
2022/05/30 01:52:57;;;;;;;5.75;3.08;;;;;;;16.04;44.32;99567.75;5015230;28;20042;-73
2022/05/30 01:55:43;;;;;;;6.05;3.40;;;;;;;15.95;44.21;99555.53;5003585;28;20152;-74
2022/05/30 01:58:11;;;;;;;5.65;3.60;;;;;;;15.93;44.25;99543.34;5015154;28;20088;-71
2022/05/30 02:00:57;;;;;;;5.25;3.03;;;;;;;16.34;43.60;99581.78;5045950;28;20049;-73
2022/05/30 02:03:23;;;;;;;5.57;3.20;;;;;;;16.24;43.92;99571.41;5014163;28;20103;-72
2022/05/30 02:05:51;;;;;;;5.95;3.03;;;;;;;16.25;43.76;99583.75;5014685;28;20095;-72
2022/05/30 02:08:21;;;;;;;7.13;3.95;;;;;;;16.20;44.00;99583.53;5032604;28;20052;-73
2022/05/30 02:10:49;;;;;;;6.55;3.25;;;;;;;16.28;44.12;99590.59;4999662;28;20048;-73
2022/05/30 02:13:15;;;;;;;6.53;3.17;;;;;;;16.31;44.14;99588.34;4997910;28;20483;-74
2022/05/30 02:18:57;;;;;;;7.00;3.20;;;;;;;16.63;43.37;99600.34;5016292;28;20052;-73
2022/05/30 02:21:23;;;;;;;5.05;3.20;;;;;;;16.44;43.61;99585.78;5013715;28;20049;-72
2022/05/30 02:23:49;;;;;;;5.95;2.78;;;;;;;16.37;43.85;99592.09;4997745;28;20090;-72
2022/05/30 02:26:14;;;;;;;6.95;2.92;;;;;;;16.38;43.69;99594.59;5013934;28;20653;-73
2022/05/30 02:28:41;;;;;;;3.30;2.70;;;;;;;16.41;43.80;99594.19;4998212;28;20049;-73
2022/05/30 02:31:07;;;;;;;4.63;2.97;;;;;;;16.63;43.12;99587.78;5014170;28;20042;-73
2022/05/30 02:36:40;;;;;;;4.82;2.90;;;;;;;16.47;43.15;99582.72;4999673;28;20045;-73
2022/05/30 02:39:17;;;;;;;7.40;3.33;;;;;;;17.05;42.36;99607.38;4999606;28;20041;-72
2022/05/30 02:42:01;;;;;;;3.88;3.20;;;;;;;16.95;42.48;99613.09;5001537;28;20041;-72
2022/05/30 02:44:30;;;;;;;11.18;3.53;;;;;;;16.90;42.59;99620.09;5013830;28;20041;-71
2022/05/30 02:46:57;;;;;;;4.78;3.20;;;;;;;17.04;42.45;99611.06;4996824;28;20071;-72
2022/05/30 02:49:24;;;;;;;13.25;3.53;;;;;;;16.89;42.17;99576.34;4997053;28;20041;-72
2022/05/30 02:51:51;;;;;;;5.70;3.58;;;;;;;16.83;42.52;99622.75;4996870;28;20037;-73
2022/05/30 02:54:17;;;;;;;8.40;3.85;;;;;;;16.87;42.65;99628.56;5013222;28;20060;-73
2022/05/30 02:57:01;;;;;;;5.97;3.90;;;;;;;17.15;41.84;99630.13;5031349;28;20089;-73
2022/05/30 02:59:29;;;;;;;10.57;4.22;;;;;;;17.23;41.87;99629.94;4980641;28;20037;-71
2022/05/30 03:02:03;;;;;;;13.55;4.00;;;;;;;17.15;41.83;99607.81;5029058;28;20052;-71
2022/05/30 03:04:30;;;;;;;6.38;3.47;;;;;;;17.30;41.50;99633.47;4996500;28;20503;-71
2022/05/30 03:06:55;;;;;;;8.40;3.92;;;;;;;17.27;41.55;99625.00;5029399;28;20051;-71
2022/05/30 03:09:21;;;;;;;4.85;3.63;;;;;;;17.11;42.14;99633.41;5012684;28;20461;-72
2022/05/30 03:12:02;;;;;;;8.38;3.38;;;;;;;17.08;41.93;99628.44;5000090;28;20563;-71
2022/05/30 03:14:28;;;;;;;8.18;4.00;;;;;;;17.21;41.99;99634.69;4980557;28;20059;-72
2022/05/30 03:16:54;;;;;;;8.35;3.53;;;;;;;17.21;41.98;99639.22;4996243;28;20045;-72
2022/05/30 03:19:20;;;;;;;10.95;4.28;;;;;;;17.12;42.06;99654.69;5013039;28;20049;-73
2022/05/30 03:21:45;;;;;;;7.68;3.67;;;;;;;17.23;42.18;99653.28;4996278;28;20038;-74
2022/05/30 03:24:11;;;;;;;7.05;3.67;;;;;;;17.29;41.91;99664.03;5012527;28;20578;-73
2022/05/30 03:26:38;;;;;;;6.07;3.67;;;;;;;17.26;41.91;99658.25;5012858;28;20045;-72
2022/05/30 03:29:04;;;;;;;6.65;3.83;;;;;;;17.34;41.87;99656.22;5012492;28;20384;-72
2022/05/30 03:31:31;;;;;;;4.72;3.50;;;;;;;17.30;41.60;99641.53;5012554;28;20049;-71
2022/05/30 03:33:57;;;;;;;9.77;3.80;;;;;;;17.52;41.79;99671.81;5028683;28;20049;-72
2022/05/30 03:36:26;;;;;;;7.00;3.30;;;;;;;17.60;41.65;99677.00;5012143;28;20041;-72
2022/05/30 03:39:10;;;;;;;8.18;3.70;;;;;;;17.68;41.73;99671.44;5028893;28;20041;-73
2022/05/30 03:41:54;;;;;;;5.53;3.70;;;;;;;17.65;41.64;99653.06;5028411;28;20110;-74
2022/05/30 03:44:41;;;;;;;7.63;3.53;;;;;;;18.17;40.87;99682.72;5001462;28;20046;-74
2022/05/30 03:47:08;;;;;;;7.70;3.83;;;;;;;18.27;40.67;99681.25;5012800;28;20490;-74
2022/05/30 03:49:34;;;;;;;12.10;3.60;;;;;;;18.26;40.50;99684.16;5012037;28;20128;-73
2022/05/30 03:51:59;;;;;;;6.53;3.30;;;;;;;18.00;40.82;99659.94;4995331;28;20164;-73
2022/05/30 03:54:26;;;;;;;6.25;3.20;;;;;;;18.41;40.32;99687.50;4995729;28;20080;-73
2022/05/30 03:56:52;;;;;;;11.45;4.00;;;;;;;18.23;40.24;99668.44;5012129;28;20053;-72
2022/05/30 03:59:18;;;;;;;12.02;3.65;;;;;;;18.57;40.18;99699.69;5012491;28;20133;-72
2022/05/30 04:01:44;;;;;;;8.38;3.67;;;;;;;18.63;40.17;99704.25;5012204;28;20050;-72
2022/05/30 04:04:12;;;;;;;10.88;3.47;;;;;;;18.83;40.10;99699.69;5012272;28;20522;-71
2022/05/30 04:06:39;;;;;;;6.10;3.70;;;;;;;18.76;39.93;99693.50;5011585;28;20046;-71
2022/05/30 04:09:06;;;;;;;9.90;3.60;;;;;;;19.06;39.53;99702.75;5011350;28;20052;-71
2022/05/30 04:11:50;;;;;;;9.93;3.63;;;;;;;18.90;39.60;99692.41;5014255;28;20541;-72
2022/05/30 04:14:59;;;;;;;6.13;3.17;;;;;;;19.39;38.99;99708.91;4983783;28;20049;-72
2022/05/30 04:17:33;;;;;;;8.23;3.10;;;;;;;19.43;38.74;99727.13;5012101;28;20045;-72
2022/05/30 04:19:59;;;;;;;5.00;3.00;;;;;;;19.22;38.98;99726.53;5027730;28;20045;-73
2022/05/30 04:22:25;;;;;;;10.93;3.70;;;;;;;19.31;39.17;99742.25;4994827;28;20361;-71
2022/05/30 04:25:28;;;;;;;8.40;3.10;;;;;;;19.59;39.12;99744.66;5015960;28;20120;-71
2022/05/30 04:27:55;;;;;;;10.25;3.90;;;;;;;19.73;38.65;99746.25;5011442;28;20067;-73
2022/05/30 04:30:21;;;;;;;6.70;3.30;;;;;;;19.78;38.33;99741.91;4992090;28;20578;-71
2022/05/30 04:32:52;;;;;;;4.75;2.47;;;;;;;19.94;37.72;99751.38;5028259;28;20045;-71
2022/05/30 04:35:19;;;;;;;8.68;2.80;;;;;;;20.15;37.28;99734.03;5028166;28;20144;-73
2022/05/30 04:37:47;;;;;;;9.13;2.40;;;;;;;20.28;36.62;99750.16;5011158;28;20111;-73
2022/05/30 04:40:30;;;;;;;10.32;3.38;;;;;;;20.37;36.30;99746.16;5010590;28;20419;-71
2022/05/30 04:43:15;;;;;;;9.80;2.85;;;;;;;20.51;36.13;99762.00;4995294;28;20108;-70
2022/05/30 04:46:15;;;;;;;6.10;2.20;;;;;;;20.94;34.75;99759.41;4995137;28;20046;-74
2022/05/30 04:48:48;;;;;;;5.53;2.40;;;;;;;20.77;35.00;99745.59;4994145;28;20046;-72
2022/05/30 04:51:14;;;;;;;8.77;3.92;;;;;;;20.92;34.84;99739.88;5015398;28;20045;-73
2022/05/30 04:53:40;;;;;;;7.38;2.78;;;;;;;20.98;34.71;99747.13;5014988;28;20100;-73
2022/05/30 04:56:09;;;;;;;4.47;2.28;;;;;;;21.15;33.20;99740.09;4998984;28;20545;-74
2022/05/30 04:58:53;;;;;;;5.88;1.75;;;;;;;21.15;33.25;99738.22;5034007;28;20503;-74
2022/05/30 05:01:20;;;;;;;3.58;1.45;;;;;;;21.30;32.44;99744.09;4975281;28;20054;-74
2022/05/30 05:03:47;;;;;;;5.63;1.55;;;;;;;21.40;31.79;99748.97;4976575;28;20081;-74
2022/05/30 05:06:18;;;;;;;4.50;1.75;;;;;;;21.79;31.14;99750.44;4961081;28;20224;-74
2022/05/30 05:08:55;;;;;;;3.30;1.40;;;;;;;21.84;30.84;99735.16;4992963;28;20046;-73
2022/05/30 05:11:36;;;;;;;5.70;1.40;;;;;;;21.93;30.97;99743.78;4991763;28;20057;-73
2022/05/30 05:14:20;;;;;;;4.85;1.20;;;;;;;21.84;29.74;99740.56;4992210;28;20041;-73
2022/05/30 05:17:06;;;;;;;3.03;0.90;;;;;;;22.21;29.72;99747.53;4994537;28;20046;-73
2022/05/30 05:19:33;;;;;;;3.85;0.98;;;;;;;22.11;28.80;99738.34;4992797;28;20050;-74
2022/05/30 05:21:59;;;;;;;3.50;0.90;;;;;;;22.27;28.00;99754.75;5007731;28;20546;-74
2022/05/30 05:24:26;;;;;;;2.63;0.90;;;;;;;22.35;27.87;99743.59;4992773;28;20042;-72
2022/05/30 05:27:10;;;;;;;1.05;0.85;;;;;;;22.47;27.61;99754.44;4991939;28;20042;-74
2022/05/30 05:29:37;;;;;;;4.78;0.85;;;;;;;22.60;27.09;99749.66;4991898;28;20054;-72
2022/05/30 05:32:04;;;;;;;2.25;1.05;;;;;;;22.74;27.70;99751.09;4992248;28;20053;-72
2022/05/30 05:34:30;;;;;;;4.45;1.05;;;;;;;22.72;26.80;99747.00;4974933;28;20050;-72
2022/05/30 05:36:56;;;;;;;2.03;0.90;;;;;;;22.77;27.05;99747.94;4993016;28;20142;-71
2022/05/30 05:39:22;;;;;;;3.08;0.90;;;;;;;22.92;27.06;99763.75;4991677;28;20061;-76
2022/05/30 05:41:54;;;;;;;1.50;1.30;;;;;;;22.95;26.39;99755.97;5008025;28;20053;-74
2022/05/30 05:44:21;;;;;;;4.63;1.00;;;;;;;22.85;27.01;99750.31;4978178;28;20050;-74
2022/05/30 05:46:47;;;;;;;3.95;1.00;;;;;;;23.23;26.22;99747.13;4975664;28;20050;-73
2022/05/30 05:49:17;;;;;;;2.95;0.88;;;;;;;23.16;26.15;99746.41;4975885;28;20078;-71
2022/05/30 05:51:45;;;;;;;3.08;1.20;;;;;;;23.33;25.80;99743.84;4991924;28;20080;-71
2022/05/30 05:54:12;;;;;;;2.72;0.90;;;;;;;23.39;25.72;99742.91;4991697;28;20538;-75
2022/05/30 05:56:38;;;;;;;1.27;0.98;;;;;;;23.50;26.19;99739.34;4975130;28;20061;-72
2022/05/30 05:59:20;;;;;;;3.15;1.10;;;;;;;23.47;26.71;99745.22;4978034;28;20050;-72
2022/05/30 06:01:46;;;;;;;2.45;0.90;;;;;;;23.57;26.12;99734.63;4989890;28;20503;-71
2022/05/30 06:04:13;;;;;;;5.93;1.25;;;;;;;23.77;26.06;99733.13;4990742;28;20074;-71
2022/05/30 06:07:13;;;;;;;5.78;1.00;;;;;;;23.81;25.09;99739.75;5017992;28;20061;-75
2022/05/30 06:09:57;;;;;;;2.72;0.90;;;;;;;23.69;25.04;99748.97;4990715;28;20065;-74
2022/05/30 06:12:46;;;;;;;2.08;1.00;;;;;;;23.73;25.03;99748.25;4977291;28;20046;-72
2022/05/30 06:15:16;;;;;;;2.10;1.10;;;;;;;24.02;24.95;99746.41;4992334;28;20050;-72
2022/05/30 06:18:09;;;;;;;3.08;1.00;;;;;;;24.12;25.10;99754.75;4992002;28;20043;-73
2022/05/30 06:20:37;;;;;;;5.82;0.90;;;;;;;24.16;24.08;99756.75;4991460;28;20034;-75
2022/05/30 06:23:03;;;;;;;1.48;0.70;;;;;;;24.11;23.82;99750.41;4989039;28;20184;-76
2022/05/30 06:25:48;;;;;;;1.63;0.73;;;;;;;23.84;24.23;99760.13;4992392;28;20081;-75
2022/05/30 06:28:43;;;;;;;1.45;0.80;;;;;;;24.19;24.13;99737.25;4964257;28;20050;-74
2022/05/30 06:31:22;;;;;;;2.75;1.02;;;;;;;24.61;24.19;99760.28;4989911;28;20424;-73
2022/05/30 06:33:53;;;;;;;2.20;0.80;;;;;;;24.48;23.23;99748.88;4990124;28;20043;-72
2022/05/30 06:36:32;;;;;;;2.28;1.13;;;;;;;24.57;23.33;99750.97;4975772;28;20066;-73
2022/05/30 06:38:59;;;;;;;4.10;0.95;;;;;;;24.62;23.34;99766.53;4974081;28;20053;-71
2022/05/30 06:41:33;;;;;;;5.25;0.90;;;;;;;24.54;22.52;99756.09;4959163;28;20408;-74
2022/05/30 06:44:08;;;;;;;3.20;0.80;;;;;;;24.95;22.31;99765.75;4974529;28;20416;-74
2022/05/30 06:46:52;;;;;;;5.05;0.82;;;;;;;25.11;22.03;99764.91;4991789;28;20058;-72
2022/05/30 06:49:36;;;;;;;3.88;1.30;;;;;;;25.35;21.90;99772.66;4975577;28;20058;-73
2022/05/30 06:52:03;;;;;;;2.78;0.77;;;;;;;25.49;21.75;99770.41;4957164;28;20065;-76
2022/05/30 06:54:31;;;;;;;1.58;0.90;;;;;;;25.48;21.16;99763.31;4941226;28;20523;-72
2022/05/30 06:59:56;;;;;;;2.33;0.93;;;;;;;26.00;21.15;99778.97;4973635;28;20041;-77
2022/05/30 07:02:22;;;;;;;1.92;0.95;;;;;;;26.12;21.34;99767.97;4993744;28;20068;-74
2022/05/30 07:05:07;;;;;;;3.30;0.90;;;;;;;26.25;21.07;99784.72;5011832;28;20140;-73
2022/05/30 07:07:56;;;;;;;3.22;0.82;;;;;;;26.21;20.81;99774.59;4988072;28;20057;-75
2022/05/30 07:10:26;;;;;;;4.38;0.90;;;;;;;26.53;21.23;99780.91;5024409;28;20050;-78
2022/05/30 07:13:07;;;;;;;2.80;0.90;;;;;;;26.73;21.35;99777.56;5007896;28;20045;-72
2022/05/30 07:15:36;;;;;;;3.40;0.75;;;;;;;27.10;19.78;99776.53;5009885;28;20049;-72
2022/05/30 07:18:14;;;;;;;3.25;0.63;;;;;;;27.69;18.90;99749.91;5009571;28;20082;-72
2022/05/30 07:20:41;;;;;;;3.22;0.90;;;;;;;28.37;18.51;99776.09;4993711;28;20126;-73
2022/05/30 07:23:26;;;;;;;1.58;0.70;;;;;;;29.18;17.55;99780.56;5013633;28;20045;-71
2022/05/30 07:26:19;;;;;;;1.55;0.90;;;;;;;30.44;16.54;99784.53;5015951;28;20057;-74
2022/05/30 07:28:51;;;;;;;3.17;0.98;;;;;;;31.68;15.90;99772.78;5018991;28;20495;-71
2022/05/30 07:31:35;;;;;;;1.73;1.05;;;;;;;32.83;14.62;99784.13;5019711;28;20045;-71
2022/05/30 07:34:20;;;;;;;1.40;1.00;;;;;;;34.44;12.95;99789.34;4989893;28;20527;-73
2022/05/30 07:37:05;;;;;;;3.30;1.20;;;;;;;36.73;11.94;99783.34;5013695;28;20103;-72
2022/05/30 07:39:49;;;;;;;2.50;0.80;;;;;;;38.57;9.51;99799.19;5017463;28;20037;-72
2022/05/30 07:42:31;;;;;;;6.07;1.00;;;;;;;38.52;8.38;99796.59;5007134;28;20042;-71
2022/05/30 07:45:12;;;;;;;1.33;0.80;;;;;;;40.18;7.85;99793.03;4962791;28;20136;-73
2022/05/30 07:48:04;;;;;;;1.63;0.80;;;;;;;42.11;6.87;99808.88;4977965;28;20125;-73
2022/05/30 07:50:54;;;;;;;2.40;0.80;;;;;;;43.99;5.69;99794.41;5009842;28;20065;-73
2022/05/30 07:53:29;;;;;;;;;;;;;;;43.90;5.58;99799.47;5007027;28;20467;-73
2022/05/30 07:55:59;;;;;;;1.90;0.80;;;;;;;45.00;5.58;99791.41;4993192;28;19955;-74
2022/05/30 07:58:27;;;;;;;2.67;1.02;;;;;;;45.39;5.32;99789.91;4993017;28;20111;-73
2022/05/30 08:00:56;;;;;;;;;;;;;;;44.40;5.51;99789.81;5009162;28;20383;-74
2022/05/30 08:03:26;;;;;;;;;;;;;;;45.32;5.05;99805.84;4992782;28;19983;-75
2022/05/30 08:06:21;;;;;;;2.25;0.80;;;;;;;46.71;4.20;99798.91;4961487;28;19928;-72
2022/05/30 08:09:06;;;;;;;1.83;0.88;;;;;;;47.96;3.63;99794.03;5010904;28;20073;-74
2022/05/30 08:11:36;;;;;;;5.32;1.00;;;;;;;48.81;3.44;99793.41;5007822;28;20511;-72
2022/05/30 08:14:15;;;;;;;2.53;0.98;;;;;;;49.37;3.53;99792.34;4977613;28;20141;-74
2022/05/30 08:16:41;;;;;;;2.35;0.95;;;;;;;49.98;3.40;99799.13;5005844;28;20049;-75
2022/05/30 08:19:07;;;;;;;1.67;0.70;;;;;;;50.84;2.47;99800.63;5005047;28;20045;-75
2022/05/30 08:21:36;;;;;;;1.98;0.70;;;;;;;50.95;2.07;99787.16;4989315;28;20507;-75
2022/05/30 08:24:05;;;;;;;2.75;0.95;;;;;;;51.02;2.11;99799.19;5004402;28;20057;-75
2022/05/30 08:26:31;;;;;;;5.53;0.95;;;;;;;49.38;2.56;99805.22;5006337;28;20499;-74
2022/05/30 08:29:23;;;;;;;3.00;0.90;;;;;;;47.50;2.72;99808.84;4978613;28;20061;-73
2022/05/30 08:31:51;;;;;;;1.77;0.80;;;;;;;46.29;4.05;99807.91;4974994;28;20100;-74
2022/05/30 08:34:36;;;;;;;1.55;0.80;;;;;;;45.08;3.50;99815.59;4994366;28;20124;-73
2022/05/30 08:37:03;;;;;;;3.33;0.90;;;;;;;43.41;4.32;99812.53;5008521;28;20041;-74
2022/05/30 08:42:14;;;;;;;1.52;0.80;;;;;;;41.45;4.96;99814.34;5002538;28;20064;-74
2022/05/30 08:45:09;;;;;;;1.83;0.88;;;;;;;41.38;4.56;99808.59;4989846;28;20042;-74
2022/05/30 08:48:12;;;;;;;3.70;0.90;;;;;;;43.15;4.50;99807.66;4990933;28;20049;-72
2022/05/30 08:51:14;;;;;;;1.95;0.90;;;;;;;43.19;4.27;99816.94;4994475;28;20052;-74
2022/05/30 08:53:53;;;;;;;4.40;0.93;;;;;;;43.89;4.38;99802.63;5002425;28;20081;-72
2022/05/30 08:56:25;;;;;;;1.17;0.77;;;;;;;44.82;3.72;99809.22;4991111;28;20045;-73
2022/05/30 08:59:23;;;;;;;2.20;0.80;;;;;;;45.95;3.18;99801.63;4984214;28;20436;-72
2022/05/30 09:01:57;;;;;;;3.35;0.90;;;;;;;47.28;2.90;99814.84;4996099;28;20052;-75
2022/05/30 09:04:55;;;;;;;1.35;0.98;;;;;;;46.19;3.36;99797.44;4972867;28;20055;-73
2022/05/30 09:07:36;;;;;;;1.65;1.10;;;;;;;46.30;3.13;99820.78;4983665;28;20070;-73
2022/05/30 09:10:17;;;;;;;1.60;0.80;;;;;;;45.37;3.20;99803.47;4997580;28;20053;-73
2022/05/30 09:12:46;;;;;;;3.42;0.80;;;;;;;44.98;3.79;99807.03;4987115;28;20053;-73
2022/05/30 09:15:41;;;;;;;3.90;1.30;;;;;;;45.90;3.52;99799.19;5000814;28;20052;-73
2022/05/30 09:18:11;;;;;;;1.55;0.90;;;;;;;46.94;3.23;99813.50;5005821;28;20038;-73
2022/05/30 09:20:41;;;;;;;5.18;0.93;;;;;;;45.95;3.03;99778.34;4977331;28;20038;-73
2022/05/30 09:23:11;;;;;;;5.28;1.23;;;;;;;46.83;2.79;99801.38;4998485;28;20116;-73
2022/05/30 09:25:57;;;;;;;4.10;1.10;;;;;;;47.93;2.37;99808.91;5002632;28;20144;-73
2022/05/30 09:29:23;;;;;;;2.30;0.88;;;;;;;47.33;2.67;99791.94;4941964;28;20046;-74
2022/05/30 09:32:28;;;;;;;2.17;0.90;;;;;;;48.04;2.26;99798.44;4937066;28;20085;-73
2022/05/30 09:34:54;;;;;;;1.20;0.80;;;;;;;48.43;2.20;99793.53;4982755;28;20088;-73
2022/05/30 09:38:31;;;;;;;2.75;0.90;;;;;;;48.86;1.57;99800.63;4935171;29;20047;-74
2022/05/30 09:40:59;;;;;;;4.80;1.15;;;;;;;47.99;2.70;99796.03;4951252;28;20043;-73
2022/05/30 09:43:50;;;;;;;4.53;1.10;;;;;;;45.99;3.23;99804.47;4989447;28;20587;-74
2022/05/30 09:46:30;;;;;;;1.70;1.00;;;;;;;44.75;3.86;99798.72;4991121;28;20047;-73
2022/05/30 09:49:18;;;;;;;1.40;0.88;;;;;;;44.33;4.16;99798.94;4992053;28;20133;-74
2022/05/30 09:51:48;;;;;;;4.95;1.00;;;;;;;44.53;3.62;99800.41;4990898;28;20046;-73
2022/05/30 09:54:26;;;;;;;4.45;1.10;;;;;;;44.89;3.51;99795.31;4975483;28;20149;-73
2022/05/30 09:57:05;;;;;;;1.92;0.90;;;;;;;46.62;3.04;99790.88;4991707;28;20140;-73
2022/05/30 09:59:52;;;;;;;2.17;0.90;;;;;;;48.37;2.52;99792.34;4991644;28;20451;-73
2022/05/30 10:02:31;;;;;;;3.40;0.88;;;;;;;48.48;2.47;99790.31;4992025;28;20540;-76
2022/05/30 10:05:23;;;;;;;3.38;1.08;;;;;;;49.74;2.03;99794.47;4991995;28;20038;-73
2022/05/30 10:08:00;;;;;;;4.57;1.02;;;;;;;51.34;1.48;99787.41;4974230;28;20145;-74
2022/05/30 10:10:40;;;;;;;3.75;1.20;;;;;;;50.20;1.40;99786.38;4993811;28;20060;-76
2022/05/30 10:13:12;;;;;;;2.70;0.80;;;;;;;47.42;2.30;99784.72;4974589;28;20405;-76
2022/05/30 10:16:12;;;;;;;4.00;1.00;;;;;;;44.35;4.02;99776.94;4987588;28;20038;-73
2022/05/30 10:18:59;;;;;;;4.13;1.00;;;;;;;42.73;4.85;99772.44;4990896;28;20050;-73
2022/05/30 10:28:49;;;;;;;3.20;0.90;;;;;;;43.79;4.87;99756.47;4976894;28;20551;-72
2022/05/30 10:31:54;;;;;;;4.10;1.10;;;;;;;45.20;3.65;99759.22;4990612;28;20042;-74
2022/05/30 10:34:42;;;;;;;2.30;0.90;;;;;;;45.31;3.39;99773.34;4991193;28;20051;-74
2022/05/30 10:37:21;;;;;;;5.03;1.48;;;;;;;45.15;3.80;99762.34;4958290;28;20050;-72
2022/05/30 10:39:54;;;;;;;3.25;1.00;;;;;;;46.92;3.13;99759.66;4958409;28;20141;-72
2022/05/30 10:42:31;;;;;;;1.77;0.93;;;;;;;48.05;3.00;99757.78;4974573;28;20050;-72
2022/05/30 10:45:07;;;;;;;1.77;0.90;;;;;;;49.34;2.31;99756.47;4973926;28;20085;-72
2022/05/30 10:47:45;;;;;;;1.38;0.82;;;;;;;49.53;1.93;99755.91;4974139;28;20034;-73
2022/05/30 10:50:25;;;;;;;3.03;1.00;;;;;;;48.82;2.01;99743.44;4974933;28;20288;-73
2022/05/30 10:53:04;;;;;;;6.53;1.00;;;;;;;48.81;2.31;99764.41;4973660;28;20050;-76
2022/05/30 10:56:32;;;;;;;3.33;1.00;;;;;;;46.53;3.09;99748.25;4977666;28;20042;-72
2022/05/30 10:59:27;;;;;;;2.67;0.93;;;;;;;43.03;4.43;99746.28;5002175;28;20054;-70
2022/05/30 11:02:05;;;;;;;2.08;1.05;;;;;;;41.83;4.93;99713.31;4972302;28;20054;-71
2022/05/30 11:04:47;;;;;;;4.43;1.15;;;;;;;40.83;5.76;99719.41;4972463;28;20515;-74
2022/05/30 11:07:26;;;;;;;5.43;0.90;;;;;;;40.40;6.13;99714.56;4996358;28;21139;-70
2022/05/30 11:10:01;;;;;;;2.83;0.70;;;;;;;40.63;6.13;99721.22;5009774;28;20052;-70
2022/05/30 11:12:36;;;;;;;3.20;0.65;;;;;;;40.15;5.94;99707.41;5000340;28;20484;-67
2022/05/30 11:15:28;;;;;;;4.30;0.80;;;;;;;39.72;6.22;99698.91;4999539;28;20081;-67
2022/05/30 11:18:10;;;;;;;2.05;0.80;;;;;;;39.14;6.91;99683.44;5016334;28;20053;-68
2022/05/30 11:21:38;;;;;;;1.40;1.10;;;;;;;38.57;7.32;99691.72;4982190;28;20049;-68
2022/05/30 11:24:05;;;;;;;2.05;1.00;;;;;;;37.35;7.56;99695.09;4993086;28;20422;-69
2022/05/30 11:26:40;;;;;;;2.83;0.90;;;;;;;35.46;9.26;99682.38;5001457;28;20041;-67
2022/05/30 11:29:30;;;;;;;2.33;0.85;;;;;;;33.99;9.77;99681.69;4992408;28;20045;-69
2022/05/30 11:32:13;;;;;;;1.25;0.70;;;;;;;33.74;10.16;99667.63;5014142;28;20044;-68
2022/05/30 11:35:16;;;;;;;2.33;0.90;;;;;;;34.14;9.48;99680.50;4997090;28;20089;-69
2022/05/30 11:37:57;;;;;;;1.50;0.90;;;;;;;33.99;9.94;99675.34;5015543;28;20049;-69
2022/05/30 11:40:35;;;;;;;2.97;0.93;;;;;;;34.01;9.88;99673.13;4998594;28;20519;-72
2022/05/30 11:43:30;;;;;;;2.80;0.80;;;;;;;34.24;9.66;99672.03;4982227;28;20092;-68
2022/05/30 11:46:20;;;;;;;1.38;0.90;;;;;;;34.53;9.65;99682.66;4982221;28;20073;-68
2022/05/30 11:48:46;;;;;;;;;;;;;;;34.56;9.90;99679.25;4984149;28;20033;-68
2022/05/30 11:51:42;;;;;;;1.58;0.88;;;;;;;33.69;10.14;99678.78;4983728;28;19928;-68
2022/05/30 11:54:20;;;;;;;0.98;0.88;;;;;;;32.35;10.83;99648.75;5008933;28;20054;-68
2022/05/30 11:57:00;;;;;;;1.73;0.90;;;;;;;31.43;12.08;99665.97;4992355;28;20545;-70
2022/05/30 11:59:47;;;;;;;8.07;1.10;;;;;;;30.53;12.71;99661.38;4998771;28;20418;-69
2022/05/30 12:02:19;;;;;;;2.78;0.98;;;;;;;30.71;13.00;99649.69;5004604;28;20644;-66
2022/05/30 12:04:57;;;;;;;2.55;0.93;;;;;;;30.72;12.84;99659.56;4979317;28;20108;-68
2022/05/30 12:07:57;;;;;;;2.40;1.52;;;;;;;30.94;12.89;99647.03;4995209;28;20045;-71
2022/05/30 12:11:01;;;;;;;7.80;1.10;;;;;;;31.24;12.84;99651.38;4978972;28;20057;-69
2022/05/30 12:13:38;;;;;;;8.80;1.10;;;;;;;30.66;12.79;99639.59;5011208;28;20132;-71
2022/05/30 12:16:23;;;;;;;3.30;0.88;;;;;;;30.01;12.99;99663.94;5011817;28;20546;-72
2022/05/30 12:24:41;;;;;;;8.48;1.20;;;;;;;29.43;14.01;99649.19;4997752;28;20049;-73
2022/05/30 12:27:26;;;;;;;3.10;1.15;;;;;;;29.38;14.17;99646.44;4995477;28;20132;-73
2022/05/30 12:29:53;;;;;;;4.22;1.02;;;;;;;29.16;14.15;99651.44;5028296;28;20418;-74
2022/05/30 12:32:23;;;;;;;1.70;1.10;;;;;;;29.07;14.61;99653.94;5012245;28;20144;-73
2022/05/30 12:34:57;;;;;;;5.05;0.90;;;;;;;29.27;14.56;99653.06;5010366;28;20081;-73
2022/05/30 12:37:38;;;;;;;4.18;1.30;;;;;;;29.52;14.74;99647.50;5028717;28;20059;-73
2022/05/30 12:40:10;;;;;;;2.08;0.80;;;;;;;29.50;14.86;99636.00;5028121;28;20564;-73
2022/05/30 12:42:42;;;;;;;3.60;1.20;;;;;;;29.27;14.44;99651.16;5027630;28;20060;-73
2022/05/30 12:45:19;;;;;;;2.25;1.20;;;;;;;29.32;14.40;99637.44;5027533;28;20037;-73